sensor_id;sensor_type;location;lat;lon;timestamp;temperature;humidity
28959;DHT22;16066;0.000;0.000;2022-08-19T00:02:04;24.30;54.90
28959;DHT22;16066;0.000;0.000;2022-08-19T00:04:32;24.30;54.90
28959;DHT22;16066;0.000;0.000;2022-08-19T00:07:00;24.30;54.90
28959;DHT22;16066;0.000;0.000;2022-08-19T00:09:26;24.30;54.90
28959;DHT22;16066;0.000;0.000;2022-08-19T00:11:53;24.20;54.90
28959;DHT22;16066;0.000;0.000;2022-08-19T00:14:21;24.20;55.00
28959;DHT22;16066;0.000;0.000;2022-08-19T00:16:48;24.20;55.10
28959;DHT22;16066;0.000;0.000;2022-08-19T00:19:15;24.20;55.00
28959;DHT22;16066;0.000;0.000;2022-08-19T00:21:41;24.10;55.00
28959;DHT22;16066;0.000;0.000;2022-08-19T00:24:11;24.10;55.10
28959;DHT22;16066;0.000;0.000;2022-08-19T00:26:37;24.10;55.10
28959;DHT22;16066;0.000;0.000;2022-08-19T00:29:06;24.10;55.20
28959;DHT22;16066;0.000;0.000;2022-08-19T00:31:32;24.10;55.20
28959;DHT22;16066;0.000;0.000;2022-08-19T00:33:58;24.10;55.20
28959;DHT22;16066;0.000;0.000;2022-08-19T00:36:24;24.10;55.30
28959;DHT22;16066;0.000;0.000;2022-08-19T00:38:49;24.00;55.30
28959;DHT22;16066;0.000;0.000;2022-08-19T00:41:18;24.00;55.30
28959;DHT22;16066;0.000;0.000;2022-08-19T00:44:05;24.00;55.40
28959;DHT22;16066;0.000;0.000;2022-08-19T00:46:32;23.90;55.40
28959;DHT22;16066;0.000;0.000;2022-08-19T00:48:59;23.90;55.40
28959;DHT22;16066;0.000;0.000;2022-08-19T00:51:27;23.80;55.30
28959;DHT22;16066;0.000;0.000;2022-08-19T00:53:55;23.90;55.50
28959;DHT22;16066;0.000;0.000;2022-08-19T00:56:22;23.80;55.40
28959;DHT22;16066;0.000;0.000;2022-08-19T00:58:47;23.80;55.40
28959;DHT22;16066;0.000;0.000;2022-08-19T01:01:13;23.80;55.40
28959;DHT22;16066;0.000;0.000;2022-08-19T01:03:39;23.80;55.40
28959;DHT22;16066;0.000;0.000;2022-08-19T01:06:05;23.80;55.40
28959;DHT22;16066;0.000;0.000;2022-08-19T01:08:30;23.80;55.80
28959;DHT22;16066;0.000;0.000;2022-08-19T01:10:58;23.80;55.40
28959;DHT22;16066;0.000;0.000;2022-08-19T01:13:27;23.80;56.10
28959;DHT22;16066;0.000;0.000;2022-08-19T01:15:57;23.80;55.50
28959;DHT22;16066;0.000;0.000;2022-08-19T01:18:26;23.70;55.50
28959;DHT22;16066;0.000;0.000;2022-08-19T01:20:54;23.70;55.50
28959;DHT22;16066;0.000;0.000;2022-08-19T01:23:21;23.70;55.60
28959;DHT22;16066;0.000;0.000;2022-08-19T01:25:48;23.70;55.60
28959;DHT22;16066;0.000;0.000;2022-08-19T01:28:20;23.70;55.60
28959;DHT22;16066;0.000;0.000;2022-08-19T01:30:46;23.70;55.70
28959;DHT22;16066;0.000;0.000;2022-08-19T01:33:12;23.60;55.60
28959;DHT22;16066;0.000;0.000;2022-08-19T01:35:38;23.60;55.60
28959;DHT22;16066;0.000;0.000;2022-08-19T01:38:07;23.60;55.60
28959;DHT22;16066;0.000;0.000;2022-08-19T01:40:35;23.70;55.70
28959;DHT22;16066;0.000;0.000;2022-08-19T01:43:02;23.60;55.70
28959;DHT22;16066;0.000;0.000;2022-08-19T01:45:30;23.60;55.60
28959;DHT22;16066;0.000;0.000;2022-08-19T01:47:58;23.50;55.60
28959;DHT22;16066;0.000;0.000;2022-08-19T01:50:24;23.50;55.60
28959;DHT22;16066;0.000;0.000;2022-08-19T01:52:51;23.50;55.60
28959;DHT22;16066;0.000;0.000;2022-08-19T01:55:19;23.50;55.70
28959;DHT22;16066;0.000;0.000;2022-08-19T01:57:49;23.50;55.70
28959;DHT22;16066;0.000;0.000;2022-08-19T02:00:18;23.50;55.70
28959;DHT22;16066;0.000;0.000;2022-08-19T02:02:45;23.50;55.80
28959;DHT22;16066;0.000;0.000;2022-08-19T02:05:11;23.50;55.70
28959;DHT22;16066;0.000;0.000;2022-08-19T02:07:38;23.50;55.80
28959;DHT22;16066;0.000;0.000;2022-08-19T02:10:08;23.50;55.80
28959;DHT22;16066;0.000;0.000;2022-08-19T02:12:36;23.50;55.80
28959;DHT22;16066;0.000;0.000;2022-08-19T02:15:02;23.40;55.70
28959;DHT22;16066;0.000;0.000;2022-08-19T02:17:28;23.40;55.80
28959;DHT22;16066;0.000;0.000;2022-08-19T02:19:55;23.40;55.80
28959;DHT22;16066;0.000;0.000;2022-08-19T02:22:22;23.40;55.70
28959;DHT22;16066;0.000;0.000;2022-08-19T02:24:47;23.40;55.80
28959;DHT22;16066;0.000;0.000;2022-08-19T02:27:14;23.40;55.80
28959;DHT22;16066;0.000;0.000;2022-08-19T02:29:39;23.40;55.90
28959;DHT22;16066;0.000;0.000;2022-08-19T02:32:06;23.40;55.90
28959;DHT22;16066;0.000;0.000;2022-08-19T02:34:33;23.30;55.90
28959;DHT22;16066;0.000;0.000;2022-08-19T02:36:58;23.30;55.90
28959;DHT22;16066;0.000;0.000;2022-08-19T02:39:24;23.30;55.90
28959;DHT22;16066;0.000;0.000;2022-08-19T02:41:49;23.30;55.90
28959;DHT22;16066;0.000;0.000;2022-08-19T02:44:16;23.20;55.90
28959;DHT22;16066;0.000;0.000;2022-08-19T02:46:42;23.30;56.00
28959;DHT22;16066;0.000;0.000;2022-08-19T02:49:10;23.30;56.00
28959;DHT22;16066;0.000;0.000;2022-08-19T02:51:38;23.20;56.00
28959;DHT22;16066;0.000;0.000;2022-08-19T02:54:06;23.20;56.00
28959;DHT22;16066;0.000;0.000;2022-08-19T02:56:35;23.20;56.00
28959;DHT22;16066;0.000;0.000;2022-08-19T02:59:01;23.20;56.10
28959;DHT22;16066;0.000;0.000;2022-08-19T03:01:31;23.20;56.00
28959;DHT22;16066;0.000;0.000;2022-08-19T03:04:02;23.20;56.00
28959;DHT22;16066;0.000;0.000;2022-08-19T03:06:29;23.20;56.00
28959;DHT22;16066;0.000;0.000;2022-08-19T03:08:55;23.20;56.10
28959;DHT22;16066;0.000;0.000;2022-08-19T03:11:24;23.20;56.00
28959;DHT22;16066;0.000;0.000;2022-08-19T03:13:50;23.20;56.00
28959;DHT22;16066;0.000;0.000;2022-08-19T03:16:17;23.10;56.10
28959;DHT22;16066;0.000;0.000;2022-08-19T03:18:43;23.10;56.10
28959;DHT22;16066;0.000;0.000;2022-08-19T03:21:08;23.10;56.10
28959;DHT22;16066;0.000;0.000;2022-08-19T03:23:35;23.10;56.20
28959;DHT22;16066;0.000;0.000;2022-08-19T03:26:04;23.10;56.20
28959;DHT22;16066;0.000;0.000;2022-08-19T03:28:30;23.10;56.20
28959;DHT22;16066;0.000;0.000;2022-08-19T03:31:10;23.10;56.20
28959;DHT22;16066;0.000;0.000;2022-08-19T03:33:38;23.10;56.20
28959;DHT22;16066;0.000;0.000;2022-08-19T03:36:06;23.00;56.00
28959;DHT22;16066;0.000;0.000;2022-08-19T03:38:34;23.10;56.20
28959;DHT22;16066;0.000;0.000;2022-08-19T03:41:13;23.00;56.20
28959;DHT22;16066;0.000;0.000;2022-08-19T03:43:40;23.00;56.20
28959;DHT22;16066;0.000;0.000;2022-08-19T03:46:15;23.00;56.20
28959;DHT22;16066;0.000;0.000;2022-08-19T03:48:42;23.00;56.20
28959;DHT22;16066;0.000;0.000;2022-08-19T03:51:19;23.00;56.20
28959;DHT22;16066;0.000;0.000;2022-08-19T03:53:46;23.00;56.20
28959;DHT22;16066;0.000;0.000;2022-08-19T03:56:12;23.00;56.30
28959;DHT22;16066;0.000;0.000;2022-08-19T03:58:39;23.00;56.30
28959;DHT22;16066;0.000;0.000;2022-08-19T04:01:11;23.00;56.30
28959;DHT22;16066;0.000;0.000;2022-08-19T04:03:38;22.90;56.40
28959;DHT22;16066;0.000;0.000;2022-08-19T04:06:26;22.90;56.40
28959;DHT22;16066;0.000;0.000;2022-08-19T04:08:54;22.90;56.40
28959;DHT22;16066;0.000;0.000;2022-08-19T04:11:23;22.90;56.40
28959;DHT22;16066;0.000;0.000;2022-08-19T04:13:51;22.90;56.40
28959;DHT22;16066;0.000;0.000;2022-08-19T04:16:22;22.90;56.50
28959;DHT22;16066;0.000;0.000;2022-08-19T04:18:49;22.90;56.50
28959;DHT22;16066;0.000;0.000;2022-08-19T04:21:18;22.90;56.50
28959;DHT22;16066;0.000;0.000;2022-08-19T04:23:44;22.90;56.50
28959;DHT22;16066;0.000;0.000;2022-08-19T04:26:21;22.90;56.50
28959;DHT22;16066;0.000;0.000;2022-08-19T04:28:47;22.90;56.50
28959;DHT22;16066;0.000;0.000;2022-08-19T04:31:19;22.90;56.60
28959;DHT22;16066;0.000;0.000;2022-08-19T04:33:46;22.90;56.60
28959;DHT22;16066;0.000;0.000;2022-08-19T04:36:21;22.90;56.60
28959;DHT22;16066;0.000;0.000;2022-08-19T04:38:49;22.90;57.30
28959;DHT22;16066;0.000;0.000;2022-08-19T04:41:16;22.90;56.70
28959;DHT22;16066;0.000;0.000;2022-08-19T04:44:01;22.90;56.80
28959;DHT22;16066;0.000;0.000;2022-08-19T04:46:27;22.90;56.80
28959;DHT22;16066;0.000;0.000;2022-08-19T04:48:56;22.90;56.80
28959;DHT22;16066;0.000;0.000;2022-08-19T04:51:23;22.90;56.80
28959;DHT22;16066;0.000;0.000;2022-08-19T04:53:49;22.90;56.70
28959;DHT22;16066;0.000;0.000;2022-08-19T04:56:17;22.90;56.80
28959;DHT22;16066;0.000;0.000;2022-08-19T04:58:44;22.80;56.70
28959;DHT22;16066;0.000;0.000;2022-08-19T05:01:21;22.80;56.70
28959;DHT22;16066;0.000;0.000;2022-08-19T05:03:48;22.90;56.70
28959;DHT22;16066;0.000;0.000;2022-08-19T05:06:15;22.90;56.70
28959;DHT22;16066;0.000;0.000;2022-08-19T05:08:43;22.80;56.70
28959;DHT22;16066;0.000;0.000;2022-08-19T05:11:13;22.80;56.80
28959;DHT22;16066;0.000;0.000;2022-08-19T05:13:41;22.80;56.80
28959;DHT22;16066;0.000;0.000;2022-08-19T05:16:08;22.80;56.80
28959;DHT22;16066;0.000;0.000;2022-08-19T05:18:34;22.80;56.80
28959;DHT22;16066;0.000;0.000;2022-08-19T05:21:19;22.80;56.80
28959;DHT22;16066;0.000;0.000;2022-08-19T05:24:05;22.80;56.80
28959;DHT22;16066;0.000;0.000;2022-08-19T05:26:38;22.80;56.90
28959;DHT22;16066;0.000;0.000;2022-08-19T05:29:06;22.80;56.80
28959;DHT22;16066;0.000;0.000;2022-08-19T05:31:33;22.80;56.70
28959;DHT22;16066;0.000;0.000;2022-08-19T05:33:59;22.80;56.70
28959;DHT22;16066;0.000;0.000;2022-08-19T05:36:26;22.80;56.70
28959;DHT22;16066;0.000;0.000;2022-08-19T05:38:52;22.80;56.80
28959;DHT22;16066;0.000;0.000;2022-08-19T05:41:19;22.80;56.70
28959;DHT22;16066;0.000;0.000;2022-08-19T05:43:46;22.90;56.80
28959;DHT22;16066;0.000;0.000;2022-08-19T05:46:19;22.90;56.70
28959;DHT22;16066;0.000;0.000;2022-08-19T05:48:45;22.90;56.70
28959;DHT22;16066;0.000;0.000;2022-08-19T05:51:14;22.90;56.70
28959;DHT22;16066;0.000;0.000;2022-08-19T05:53:42;22.90;56.70
28959;DHT22;16066;0.000;0.000;2022-08-19T05:56:15;23.00;56.80
28959;DHT22;16066;0.000;0.000;2022-08-19T05:58:43;22.90;56.80
28959;DHT22;16066;0.000;0.000;2022-08-19T06:01:13;23.00;56.80
28959;DHT22;16066;0.000;0.000;2022-08-19T06:03:39;23.00;56.80
28959;DHT22;16066;0.000;0.000;2022-08-19T06:06:07;23.00;57.00
28959;DHT22;16066;0.000;0.000;2022-08-19T06:08:34;22.90;57.20
28959;DHT22;16066;0.000;0.000;2022-08-19T06:11:31;22.90;57.30
28959;DHT22;16066;0.000;0.000;2022-08-19T06:14:18;23.00;57.90
28959;DHT22;16066;0.000;0.000;2022-08-19T06:16:44;23.00;57.90
28959;DHT22;16066;0.000;0.000;2022-08-19T06:19:16;22.90;57.90
28959;DHT22;16066;0.000;0.000;2022-08-19T06:21:46;22.90;58.40
28959;DHT22;16066;0.000;0.000;2022-08-19T06:24:15;22.80;58.30
28959;DHT22;16066;0.000;0.000;2022-08-19T06:26:44;22.90;58.30
28959;DHT22;16066;0.000;0.000;2022-08-19T06:29:12;22.80;58.80
28959;DHT22;16066;0.000;0.000;2022-08-19T06:31:43;22.80;59.30
28959;DHT22;16066;0.000;0.000;2022-08-19T06:34:09;22.80;59.10
28959;DHT22;16066;0.000;0.000;2022-08-19T06:36:47;22.80;60.20
28959;DHT22;16066;0.000;0.000;2022-08-19T06:39:16;22.90;59.30
28959;DHT22;16066;0.000;0.000;2022-08-19T06:41:45;22.90;59.10
28959;DHT22;16066;0.000;0.000;2022-08-19T06:44:11;22.90;59.60
28959;DHT22;16066;0.000;0.000;2022-08-19T06:46:38;22.90;59.70
28959;DHT22;16066;0.000;0.000;2022-08-19T06:49:04;22.80;59.70
28959;DHT22;16066;0.000;0.000;2022-08-19T06:51:30;22.80;59.90
28959;DHT22;16066;0.000;0.000;2022-08-19T06:53:57;22.80;60.10
28959;DHT22;16066;0.000;0.000;2022-08-19T06:56:26;22.80;60.10
28959;DHT22;16066;0.000;0.000;2022-08-19T06:59:00;22.70;60.10
28959;DHT22;16066;0.000;0.000;2022-08-19T07:01:26;22.70;60.60
28959;DHT22;16066;0.000;0.000;2022-08-19T07:03:52;22.70;60.20
28959;DHT22;16066;0.000;0.000;2022-08-19T07:06:19;22.80;60.50
28959;DHT22;16066;0.000;0.000;2022-08-19T07:08:46;22.80;60.80
28959;DHT22;16066;0.000;0.000;2022-08-19T07:11:15;22.70;61.00
28959;DHT22;16066;0.000;0.000;2022-08-19T07:13:43;22.80;61.10
28959;DHT22;16066;0.000;0.000;2022-08-19T07:16:16;22.70;61.10
28959;DHT22;16066;0.000;0.000;2022-08-19T07:18:42;22.80;61.30
28959;DHT22;16066;0.000;0.000;2022-08-19T07:21:21;22.70;61.40
28959;DHT22;16066;0.000;0.000;2022-08-19T07:23:49;22.80;61.60
28959;DHT22;16066;0.000;0.000;2022-08-19T07:26:20;22.80;61.40
28959;DHT22;16066;0.000;0.000;2022-08-19T07:28:47;22.80;61.30
28959;DHT22;16066;0.000;0.000;2022-08-19T07:31:18;22.80;61.30
28959;DHT22;16066;0.000;0.000;2022-08-19T07:33:45;22.80;61.40
28959;DHT22;16066;0.000;0.000;2022-08-19T07:36:14;22.80;61.30
28959;DHT22;16066;0.000;0.000;2022-08-19T07:38:42;22.80;61.00
28959;DHT22;16066;0.000;0.000;2022-08-19T07:41:14;22.90;61.00
28959;DHT22;16066;0.000;0.000;2022-08-19T07:43:41;22.90;61.00
28959;DHT22;16066;0.000;0.000;2022-08-19T07:46:08;22.90;61.20
28959;DHT22;16066;0.000;0.000;2022-08-19T07:48:35;22.90;60.90
28959;DHT22;16066;0.000;0.000;2022-08-19T07:51:03;22.90;61.20
28959;DHT22;16066;0.000;0.000;2022-08-19T07:53:31;22.90;61.40
28959;DHT22;16066;0.000;0.000;2022-08-19T07:55:59;22.90;61.30
28959;DHT22;16066;0.000;0.000;2022-08-19T07:58:31;22.90;61.30
28959;DHT22;16066;0.000;0.000;2022-08-19T08:00:57;22.90;61.40
28959;DHT22;16066;0.000;0.000;2022-08-19T08:03:24;23.00;61.40
28959;DHT22;16066;0.000;0.000;2022-08-19T08:06:11;23.00;61.50
28959;DHT22;16066;0.000;0.000;2022-08-19T08:08:55;23.00;61.70
28959;DHT22;16066;0.000;0.000;2022-08-19T08:11:42;22.90;61.70
28959;DHT22;16066;0.000;0.000;2022-08-19T08:14:16;23.00;61.60
28959;DHT22;16066;0.000;0.000;2022-08-19T08:16:42;23.00;61.70
28959;DHT22;16066;0.000;0.000;2022-08-19T08:19:09;23.00;61.80
28959;DHT22;16066;0.000;0.000;2022-08-19T08:21:35;23.00;61.80
28959;DHT22;16066;0.000;0.000;2022-08-19T08:24:01;23.00;61.60
28959;DHT22;16066;0.000;0.000;2022-08-19T08:26:27;23.00;62.00
28959;DHT22;16066;0.000;0.000;2022-08-19T08:28:53;23.00;61.80
28959;DHT22;16066;0.000;0.000;2022-08-19T08:31:20;23.10;62.00
28959;DHT22;16066;0.000;0.000;2022-08-19T08:33:46;23.10;62.20
28959;DHT22;16066;0.000;0.000;2022-08-19T08:36:13;23.10;62.30
28959;DHT22;16066;0.000;0.000;2022-08-19T08:38:41;23.10;62.30
28959;DHT22;16066;0.000;0.000;2022-08-19T08:41:18;23.10;62.30
28959;DHT22;16066;0.000;0.000;2022-08-19T08:43:49;23.20;62.00
28959;DHT22;16066;0.000;0.000;2022-08-19T08:51:29;23.30;61.90
28959;DHT22;16066;0.000;0.000;2022-08-19T08:53:59;23.30;61.90
28959;DHT22;16066;0.000;0.000;2022-08-19T08:56:25;23.30;61.60
28959;DHT22;16066;0.000;0.000;2022-08-19T08:59:05;23.30;61.80
28959;DHT22;16066;0.000;0.000;2022-08-19T09:01:34;23.40;61.40
28959;DHT22;16066;0.000;0.000;2022-08-19T09:04:04;23.40;61.70
28959;DHT22;16066;0.000;0.000;2022-08-19T09:09:38;23.40;61.20
28959;DHT22;16066;0.000;0.000;2022-08-19T09:15:00;23.50;60.60
28959;DHT22;16066;0.000;0.000;2022-08-19T09:17:29;23.50;60.70
28959;DHT22;16066;0.000;0.000;2022-08-19T09:22:27;23.60;60.20
28959;DHT22;16066;0.000;0.000;2022-08-19T09:24:54;23.60;60.10
28959;DHT22;16066;0.000;0.000;2022-08-19T09:27:21;23.60;59.80
28959;DHT22;16066;0.000;0.000;2022-08-19T09:29:49;23.70;59.90
28959;DHT22;16066;0.000;0.000;2022-08-19T09:32:16;23.70;59.70
28959;DHT22;16066;0.000;0.000;2022-08-19T09:34:44;23.80;59.90
28959;DHT22;16066;0.000;0.000;2022-08-19T09:37:11;23.80;59.70
28959;DHT22;16066;0.000;0.000;2022-08-19T09:39:38;23.80;59.50
28959;DHT22;16066;0.000;0.000;2022-08-19T09:42:07;23.80;59.40
28959;DHT22;16066;0.000;0.000;2022-08-19T09:44:38;23.90;59.30
28959;DHT22;16066;0.000;0.000;2022-08-19T09:47:04;23.90;59.10
28959;DHT22;16066;0.000;0.000;2022-08-19T09:49:31;24.00;59.10
28959;DHT22;16066;0.000;0.000;2022-08-19T09:51:57;24.00;59.00
28959;DHT22;16066;0.000;0.000;2022-08-19T09:54:23;24.10;58.90
28959;DHT22;16066;0.000;0.000;2022-08-19T09:56:49;24.10;58.70
28959;DHT22;16066;0.000;0.000;2022-08-19T09:59:15;24.10;58.60
28959;DHT22;16066;0.000;0.000;2022-08-19T10:01:42;24.10;58.60
28959;DHT22;16066;0.000;0.000;2022-08-19T10:04:10;24.20;58.50
28959;DHT22;16066;0.000;0.000;2022-08-19T10:06:38;24.20;58.30
28959;DHT22;16066;0.000;0.000;2022-08-19T10:09:09;24.20;58.10
28959;DHT22;16066;0.000;0.000;2022-08-19T10:11:39;24.20;57.90
28959;DHT22;16066;0.000;0.000;2022-08-19T10:14:06;24.20;57.90
28959;DHT22;16066;0.000;0.000;2022-08-19T10:16:33;24.20;57.80
28959;DHT22;16066;0.000;0.000;2022-08-19T10:18:59;24.30;57.80
28959;DHT22;16066;0.000;0.000;2022-08-19T10:21:28;24.30;57.70
28959;DHT22;16066;0.000;0.000;2022-08-19T10:23:57;24.30;57.50
28959;DHT22;16066;0.000;0.000;2022-08-19T10:26:28;24.30;57.50
28959;DHT22;16066;0.000;0.000;2022-08-19T10:28:55;24.30;57.30
28959;DHT22;16066;0.000;0.000;2022-08-19T10:31:29;24.30;57.20
28959;DHT22;16066;0.000;0.000;2022-08-19T10:33:56;24.40;57.20
28959;DHT22;16066;0.000;0.000;2022-08-19T10:36:31;24.40;57.30
28959;DHT22;16066;0.000;0.000;2022-08-19T10:38:59;24.40;57.20
28959;DHT22;16066;0.000;0.000;2022-08-19T10:41:31;24.40;57.00
28959;DHT22;16066;0.000;0.000;2022-08-19T10:44:02;24.40;56.70
28959;DHT22;16066;0.000;0.000;2022-08-19T10:46:29;24.40;56.70
28959;DHT22;16066;0.000;0.000;2022-08-19T10:48:59;24.40;56.60
28959;DHT22;16066;0.000;0.000;2022-08-19T10:51:25;24.50;56.60
28959;DHT22;16066;0.000;0.000;2022-08-19T10:54:10;24.50;56.50
28959;DHT22;16066;0.000;0.000;2022-08-19T10:56:36;24.50;56.30
28959;DHT22;16066;0.000;0.000;2022-08-19T10:59:20;24.50;56.10
28959;DHT22;16066;0.000;0.000;2022-08-19T11:01:47;24.50;56.00
28959;DHT22;16066;0.000;0.000;2022-08-19T11:04:14;24.60;56.00
28959;DHT22;16066;0.000;0.000;2022-08-19T11:06:44;24.60;55.80
28959;DHT22;16066;0.000;0.000;2022-08-19T11:09:11;24.60;55.70
28959;DHT22;16066;0.000;0.000;2022-08-19T11:11:38;24.60;55.50
28959;DHT22;16066;0.000;0.000;2022-08-19T11:14:08;24.70;55.60
28959;DHT22;16066;0.000;0.000;2022-08-19T11:16:35;24.70;55.50
28959;DHT22;16066;0.000;0.000;2022-08-19T11:19:03;24.70;55.50
28959;DHT22;16066;0.000;0.000;2022-08-19T11:21:32;24.70;55.40
28959;DHT22;16066;0.000;0.000;2022-08-19T11:24:13;24.70;55.30
28959;DHT22;16066;0.000;0.000;2022-08-19T11:26:42;24.80;55.20
28959;DHT22;16066;0.000;0.000;2022-08-19T11:29:09;24.80;55.00
28959;DHT22;16066;0.000;0.000;2022-08-19T11:31:44;24.80;54.90
28959;DHT22;16066;0.000;0.000;2022-08-19T11:34:17;24.80;54.70
28959;DHT22;16066;0.000;0.000;2022-08-19T11:36:45;24.80;54.70
28959;DHT22;16066;0.000;0.000;2022-08-19T11:39:15;24.80;54.60
28959;DHT22;16066;0.000;0.000;2022-08-19T11:41:41;24.80;54.50
28959;DHT22;16066;0.000;0.000;2022-08-19T11:44:07;24.80;54.30
28959;DHT22;16066;0.000;0.000;2022-08-19T11:46:35;24.90;54.30
28959;DHT22;16066;0.000;0.000;2022-08-19T11:49:02;24.90;54.10
28959;DHT22;16066;0.000;0.000;2022-08-19T11:51:29;25.00;54.10
28959;DHT22;16066;0.000;0.000;2022-08-19T11:53:57;25.00;54.00
28959;DHT22;16066;0.000;0.000;2022-08-19T11:56:24;25.10;53.90
28959;DHT22;16066;0.000;0.000;2022-08-19T11:58:51;25.10;53.80
28959;DHT22;16066;0.000;0.000;2022-08-19T12:01:19;25.10;53.60
28959;DHT22;16066;0.000;0.000;2022-08-19T12:03:46;25.10;53.50
28959;DHT22;16066;0.000;0.000;2022-08-19T12:06:17;25.00;53.30
28959;DHT22;16066;0.000;0.000;2022-08-19T12:08:44;25.00;53.30
28959;DHT22;16066;0.000;0.000;2022-08-19T12:11:11;25.10;53.30
28959;DHT22;16066;0.000;0.000;2022-08-19T12:13:39;25.10;53.20
28959;DHT22;16066;0.000;0.000;2022-08-19T12:16:13;25.10;53.10
28959;DHT22;16066;0.000;0.000;2022-08-19T12:18:41;25.20;53.00
28959;DHT22;16066;0.000;0.000;2022-08-19T12:21:09;25.30;52.80
28959;DHT22;16066;0.000;0.000;2022-08-19T12:23:36;25.30;52.70
28959;DHT22;16066;0.000;0.000;2022-08-19T12:26:03;25.40;52.70
28959;DHT22;16066;0.000;0.000;2022-08-19T12:28:30;25.40;52.40
28959;DHT22;16066;0.000;0.000;2022-08-19T12:30:57;25.50;52.30
28959;DHT22;16066;0.000;0.000;2022-08-19T12:33:23;25.50;52.10
28959;DHT22;16066;0.000;0.000;2022-08-19T12:35:52;25.50;51.90
28959;DHT22;16066;0.000;0.000;2022-08-19T12:38:18;25.50;51.70
28959;DHT22;16066;0.000;0.000;2022-08-19T12:40:48;25.60;51.60
28959;DHT22;16066;0.000;0.000;2022-08-19T12:43:15;25.60;51.50
28959;DHT22;16066;0.000;0.000;2022-08-19T12:45:42;25.70;51.40
28959;DHT22;16066;0.000;0.000;2022-08-19T12:48:09;25.80;51.40
28959;DHT22;16066;0.000;0.000;2022-08-19T12:50:35;25.80;51.00
28959;DHT22;16066;0.000;0.000;2022-08-19T12:53:01;25.90;50.80
28959;DHT22;16066;0.000;0.000;2022-08-19T12:55:26;26.00;50.40
28959;DHT22;16066;0.000;0.000;2022-08-19T12:57:54;26.00;50.20
28959;DHT22;16066;0.000;0.000;2022-08-19T13:00:21;26.00;49.90
28959;DHT22;16066;0.000;0.000;2022-08-19T13:02:50;26.00;49.70
28959;DHT22;16066;0.000;0.000;2022-08-19T13:05:21;26.00;49.60
28959;DHT22;16066;0.000;0.000;2022-08-19T13:07:52;26.00;49.50
28959;DHT22;16066;0.000;0.000;2022-08-19T13:10:21;26.10;49.20
28959;DHT22;16066;0.000;0.000;2022-08-19T13:12:48;26.20;49.20
28959;DHT22;16066;0.000;0.000;2022-08-19T13:15:16;26.20;49.10
28959;DHT22;16066;0.000;0.000;2022-08-19T13:17:47;26.40;48.40
28959;DHT22;16066;0.000;0.000;2022-08-19T13:20:15;26.60;48.10
28959;DHT22;16066;0.000;0.000;2022-08-19T13:22:41;26.70;47.70
28959;DHT22;16066;0.000;0.000;2022-08-19T13:25:08;26.90;46.90
28959;DHT22;16066;0.000;0.000;2022-08-19T13:27:33;27.00;47.00
28959;DHT22;16066;0.000;0.000;2022-08-19T13:30:00;27.10;47.10
28959;DHT22;16066;0.000;0.000;2022-08-19T13:32:44;27.10;47.10
28959;DHT22;16066;0.000;0.000;2022-08-19T13:35:27;27.30;46.40
28959;DHT22;16066;0.000;0.000;2022-08-19T13:37:53;27.60;46.20
28959;DHT22;16066;0.000;0.000;2022-08-19T13:40:22;27.70;44.90
28959;DHT22;16066;0.000;0.000;2022-08-19T13:42:51;27.80;44.60
28959;DHT22;16066;0.000;0.000;2022-08-19T13:45:20;28.00;45.00
28959;DHT22;16066;0.000;0.000;2022-08-19T13:47:47;28.10;44.50
28959;DHT22;16066;0.000;0.000;2022-08-19T13:50:15;28.20;43.70
28959;DHT22;16066;0.000;0.000;2022-08-19T13:52:41;28.40;43.10
28959;DHT22;16066;0.000;0.000;2022-08-19T13:55:08;28.50;43.60
28959;DHT22;16066;0.000;0.000;2022-08-19T13:57:34;28.40;43.20
28959;DHT22;16066;0.000;0.000;2022-08-19T14:00:02;28.20;44.20
28959;DHT22;16066;0.000;0.000;2022-08-19T14:02:28;28.00;44.70
28959;DHT22;16066;0.000;0.000;2022-08-19T14:04:53;27.80;45.30
28959;DHT22;16066;0.000;0.000;2022-08-19T14:07:19;27.60;45.00
28959;DHT22;16066;0.000;0.000;2022-08-19T14:09:46;27.50;45.50
28959;DHT22;16066;0.000;0.000;2022-08-19T14:12:11;27.40;45.50
28959;DHT22;16066;0.000;0.000;2022-08-19T14:14:38;27.50;45.40
28959;DHT22;16066;0.000;0.000;2022-08-19T14:17:07;27.50;45.10
28959;DHT22;16066;0.000;0.000;2022-08-19T14:19:33;27.70;44.30
28959;DHT22;16066;0.000;0.000;2022-08-19T14:21:58;27.70;43.80
28959;DHT22;16066;0.000;0.000;2022-08-19T14:24:24;27.80;43.60
28959;DHT22;16066;0.000;0.000;2022-08-19T14:26:50;27.90;43.30
28959;DHT22;16066;0.000;0.000;2022-08-19T14:29:15;27.90;43.30
28959;DHT22;16066;0.000;0.000;2022-08-19T14:31:41;27.90;43.60
28959;DHT22;16066;0.000;0.000;2022-08-19T14:34:08;28.00;43.30
28959;DHT22;16066;0.000;0.000;2022-08-19T14:36:36;28.10;43.50
28959;DHT22;16066;0.000;0.000;2022-08-19T14:39:02;28.20;43.10
28959;DHT22;16066;0.000;0.000;2022-08-19T14:41:27;28.30;43.00
28959;DHT22;16066;0.000;0.000;2022-08-19T14:43:54;28.40;43.30
28959;DHT22;16066;0.000;0.000;2022-08-19T14:46:23;28.50;42.60
28959;DHT22;16066;0.000;0.000;2022-08-19T14:48:50;28.70;42.40
28959;DHT22;16066;0.000;0.000;2022-08-19T14:51:17;28.90;41.70
28959;DHT22;16066;0.000;0.000;2022-08-19T14:53:44;29.20;41.20
28959;DHT22;16066;0.000;0.000;2022-08-19T14:56:13;29.30;40.70
28959;DHT22;16066;0.000;0.000;2022-08-19T14:58:40;29.20;40.80
28959;DHT22;16066;0.000;0.000;2022-08-19T15:01:06;29.30;40.40
28959;DHT22;16066;0.000;0.000;2022-08-19T15:03:32;29.40;40.10
28959;DHT22;16066;0.000;0.000;2022-08-19T15:05:59;29.60;40.20
28959;DHT22;16066;0.000;0.000;2022-08-19T15:08:27;29.80;40.00
28959;DHT22;16066;0.000;0.000;2022-08-19T15:10:53;29.90;39.50
28959;DHT22;16066;0.000;0.000;2022-08-19T15:13:19;30.00;39.60
28959;DHT22;16066;0.000;0.000;2022-08-19T15:15:44;29.80;39.80
28959;DHT22;16066;0.000;0.000;2022-08-19T15:18:11;29.40;40.50
28959;DHT22;16066;0.000;0.000;2022-08-19T15:20:37;29.00;41.80
28959;DHT22;16066;0.000;0.000;2022-08-19T15:23:03;28.90;42.20
28959;DHT22;16066;0.000;0.000;2022-08-19T15:25:29;28.60;42.70
28959;DHT22;16066;0.000;0.000;2022-08-19T15:27:54;28.30;43.50
28959;DHT22;16066;0.000;0.000;2022-08-19T15:30:23;28.20;43.70
28959;DHT22;16066;0.000;0.000;2022-08-19T15:32:49;28.20;43.80
28959;DHT22;16066;0.000;0.000;2022-08-19T15:35:15;28.40;43.90
28959;DHT22;16066;0.000;0.000;2022-08-19T15:37:42;28.50;43.50
28959;DHT22;16066;0.000;0.000;2022-08-19T15:40:09;28.60;43.30
28959;DHT22;16066;0.000;0.000;2022-08-19T15:42:36;28.70;43.10
28959;DHT22;16066;0.000;0.000;2022-08-19T15:45:05;28.70;42.80
28959;DHT22;16066;0.000;0.000;2022-08-19T15:47:31;28.50;42.80
28959;DHT22;16066;0.000;0.000;2022-08-19T15:49:56;28.20;43.50
28959;DHT22;16066;0.000;0.000;2022-08-19T15:52:23;28.00;44.10
28959;DHT22;16066;0.000;0.000;2022-08-19T15:54:49;27.90;44.50
28959;DHT22;16066;0.000;0.000;2022-08-19T15:57:14;27.90;44.40
28959;DHT22;16066;0.000;0.000;2022-08-19T15:59:46;27.90;44.40
28959;DHT22;16066;0.000;0.000;2022-08-19T16:02:30;27.90;44.30
28959;DHT22;16066;0.000;0.000;2022-08-19T16:05:18;27.80;44.40
28959;DHT22;16066;0.000;0.000;2022-08-19T16:08:03;27.70;44.60